createdAt,value
2018-06-04T00:00:41.377Z,44.90
2018-06-04T00:05:44.774Z,45.00
2018-06-04T00:10:48.278Z,45.20
2018-06-04T00:15:52.141Z,45.20
2018-06-04T00:20:55.576Z,45.50
2018-06-04T00:25:58.995Z,45.80
2018-06-04T00:31:02.449Z,45.90
2018-06-04T00:36:05.888Z,46.00
2018-06-04T00:41:09.314Z,46.00
2018-06-04T00:46:12.764Z,46.00
2018-06-04T00:51:16.216Z,46.00
2018-06-04T00:56:23.178Z,46.00
2018-06-04T01:01:26.638Z,46.20
2018-06-04T01:06:30.032Z,46.30
2018-06-04T01:11:33.449Z,46.20
2018-06-04T01:16:36.895Z,46.20
2018-06-04T01:21:40.341Z,46.50
2018-06-04T01:26:43.741Z,46.60
2018-06-04T01:31:47.174Z,46.80
2018-06-04T01:36:50.560Z,46.80
2018-06-04T01:41:53.953Z,46.70
2018-06-04T01:46:57.346Z,47.00
2018-06-04T01:52:00.758Z,46.90
2018-06-04T01:57:04.159Z,47.00
2018-06-04T02:02:07.612Z,47.10
2018-06-04T02:07:10.991Z,47.10
2018-06-04T02:12:14.364Z,46.80
2018-06-04T02:17:17.749Z,47.30
2018-06-04T02:22:21.124Z,47.40
2018-06-04T02:27:24.491Z,47.60
2018-06-04T02:32:27.893Z,47.70
2018-06-04T02:37:31.301Z,47.90
2018-06-04T02:42:34.641Z,48.00
2018-06-04T02:47:38.022Z,47.90
2018-06-04T02:52:41.405Z,47.90
2018-06-04T02:57:44.795Z,47.90
2018-06-04T03:02:48.157Z,48.00
2018-06-04T03:07:51.521Z,48.00
2018-06-04T03:12:54.870Z,48.00
2018-06-04T03:17:58.264Z,47.90
2018-06-04T03:23:01.664Z,47.70
2018-06-04T03:28:05.061Z,48.50
2018-06-04T03:33:08.532Z,48.50
2018-06-04T03:38:11.932Z,48.50
2018-06-04T03:43:15.369Z,48.70
2018-06-04T03:48:18.783Z,48.90
2018-06-04T03:53:22.210Z,49.00
2018-06-04T03:58:25.632Z,49.30
2018-06-04T04:03:29.027Z,49.30
2018-06-04T04:08:32.444Z,49.20
2018-06-04T04:18:38.981Z,49.30
2018-06-04T04:23:43.653Z,49.40
2018-06-04T04:28:47.057Z,49.30
2018-06-04T04:33:50.458Z,49.60
2018-06-04T04:38:53.870Z,50.10
2018-06-04T04:43:57.250Z,49.90
2018-06-04T04:49:00.621Z,50.10
2018-06-04T04:54:03.997Z,50.40
2018-06-04T04:59:07.365Z,50.70
2018-06-04T05:04:10.729Z,50.90
2018-06-04T05:09:14.189Z,50.90
2018-06-04T05:14:17.629Z,51.20
2018-06-04T05:19:21.033Z,51.50
2018-06-04T05:24:24.434Z,51.50
2018-06-04T05:29:27.852Z,51.80
2018-06-04T05:34:31.249Z,52.20
2018-06-04T05:39:34.657Z,52.40
2018-06-04T05:44:38.127Z,52.50
2018-06-04T05:49:41.522Z,52.90
2018-06-04T05:54:44.904Z,53.10
2018-06-04T05:59:48.308Z,53.40
2018-06-04T06:04:51.729Z,53.80
2018-06-04T06:09:55.115Z,54.10
2018-06-04T06:14:58.514Z,54.00
2018-06-04T06:20:01.899Z,54.10
2018-06-04T06:25:05.365Z,53.80
2018-06-04T06:30:08.718Z,53.80
2018-06-04T06:35:12.145Z,53.60
2018-06-04T06:40:15.569Z,53.60
2018-06-04T06:45:18.947Z,53.50
2018-06-04T06:50:22.316Z,53.60
2018-06-04T06:55:25.704Z,53.60
2018-06-04T07:00:29.148Z,53.40
2018-06-04T07:05:32.532Z,53.30
2018-06-04T07:10:35.921Z,53.90
2018-06-04T07:15:39.289Z,53.10
2018-06-04T07:20:42.669Z,53.20
2018-06-04T07:25:46.093Z,53.20
2018-06-04T07:30:49.509Z,53.10
2018-06-04T07:35:52.928Z,52.90
2018-06-04T07:40:56.319Z,53.00
2018-06-04T07:45:59.740Z,52.70
2018-06-04T07:51:03.140Z,52.40
2018-06-04T07:56:06.557Z,52.20
2018-06-04T08:01:09.949Z,52.00
2018-06-04T08:06:13.409Z,52.10
2018-06-04T08:11:16.717Z,51.80
2018-06-04T08:16:20.108Z,51.70
2018-06-04T08:21:23.474Z,51.40
2018-06-04T08:26:26.829Z,50.90
2018-06-04T08:31:30.225Z,51.30
2018-06-04T08:36:33.614Z,50.90
2018-06-04T08:41:36.992Z,50.60
2018-06-04T08:46:40.417Z,50.30
2018-06-04T08:51:43.847Z,50.20
2018-06-04T08:56:47.328Z,49.90
2018-06-04T09:01:50.732Z,49.50
2018-06-04T09:06:54.132Z,49.80
2018-06-04T09:11:57.549Z,49.60
2018-06-04T09:17:00.967Z,49.40
2018-06-04T09:22:04.459Z,49.30
2018-06-04T09:27:07.981Z,48.70
2018-06-04T09:32:11.520Z,49.10
2018-06-04T09:37:14.993Z,48.80
2018-06-04T09:42:18.471Z,48.30
2018-06-04T09:47:21.989Z,47.80
2018-06-04T09:52:25.507Z,47.70
2018-06-04T09:57:28.982Z,46.80
2018-06-04T10:07:35.742Z,47.10
2018-06-04T10:12:39.287Z,46.90
2018-06-04T10:17:42.768Z,46.30
2018-06-04T10:22:46.364Z,45.30
2018-06-04T10:27:49.991Z,45.00
2018-06-04T10:32:53.621Z,45.50
2018-06-04T10:37:57.232Z,45.00
2018-06-04T10:43:00.825Z,44.30
2018-06-04T10:48:04.618Z,43.80
2018-06-04T10:53:08.313Z,43.60
2018-06-04T10:58:11.858Z,43.40
2018-06-04T11:03:15.484Z,43.20
2018-06-04T11:08:19.301Z,42.60
2018-06-04T11:13:23.014Z,42.40
2018-06-04T11:18:26.702Z,42.00
2018-06-04T11:23:31.485Z,41.40
2018-06-04T11:28:35.296Z,40.70
2018-06-04T11:33:38.996Z,39.80
2018-06-04T11:38:46.126Z,40.80
2018-06-04T11:43:49.916Z,40.20
2018-06-04T11:48:53.604Z,39.30
2018-06-04T11:53:57.237Z,38.10
2018-06-04T11:59:00.896Z,38.40
2018-06-04T12:04:05.101Z,39.00
2018-06-04T12:09:10.783Z,39.20
2018-06-04T12:14:14.528Z,38.30
2018-06-04T12:19:18.269Z,37.80
2018-06-04T12:24:22.251Z,38.00
2018-06-04T12:29:26.041Z,37.90
2018-06-04T12:34:35.061Z,37.50
2018-06-04T12:39:41.294Z,37.60
2018-06-04T12:44:49.204Z,36.70
2018-06-04T12:49:55.881Z,36.00
2018-06-04T13:00:06.797Z,36.10
2018-06-04T13:05:13.236Z,36.20
2018-06-04T13:10:16.971Z,36.00
2018-06-04T13:15:20.794Z,35.80
2018-06-04T13:20:24.532Z,34.70
2018-06-04T13:25:29.540Z,34.60
2018-06-04T13:30:33.406Z,34.20
2018-06-04T13:35:38.936Z,34.70
2018-06-04T13:40:43.297Z,34.40
2018-06-04T13:45:47.040Z,33.70
2018-06-04T13:50:51.441Z,33.30
2018-06-04T14:06:17.546Z,33.00
2018-06-04T14:11:32.345Z,33.30
2018-06-04T14:16:46.724Z,33.30
2018-06-04T14:22:02.558Z,33.20
2018-06-04T14:27:14.538Z,32.40
2018-06-04T14:32:31.792Z,32.00
2018-06-04T14:37:42.863Z,32.10
2018-06-04T14:42:52.792Z,33.10
2018-06-04T14:48:02.810Z,32.40
2018-06-04T14:53:15.227Z,32.10
2018-06-04T14:58:31.926Z,32.30
2018-06-04T15:03:42.501Z,32.60
2018-06-04T15:14:32.702Z,32.30
2018-06-04T15:19:41.953Z,32.20
2018-06-04T15:25:00.628Z,32.00
2018-06-04T15:30:13.544Z,31.90
2018-06-04T15:35:30.675Z,31.70
2018-06-04T15:40:43.472Z,31.90
2018-06-04T15:51:04.258Z,32.00
2018-06-04T15:56:18.159Z,32.00
2018-06-04T16:06:46.509Z,31.90
2018-06-04T16:12:04.043Z,31.60
2018-06-04T16:17:13.828Z,31.50
2018-06-04T16:22:25.525Z,31.10
2018-06-04T16:27:38.095Z,31.10
2018-06-04T16:32:54.885Z,31.30
2018-06-04T16:38:03.090Z,31.40
2018-06-04T16:43:08.856Z,31.00
2018-06-04T16:48:18.485Z,31.10
2018-06-04T16:53:38.446Z,31.20
2018-06-04T16:58:46.668Z,31.70
2018-06-04T17:03:51.629Z,31.80
2018-06-04T17:14:16.618Z,31.90
2018-06-04T17:19:27.187Z,31.50
2018-06-04T17:29:47.672Z,32.10
2018-06-04T17:34:56.408Z,32.10
2018-06-04T17:40:04.230Z,32.40
2018-06-04T17:45:10.383Z,32.30
2018-06-04T17:50:18.844Z,32.60
2018-06-04T17:55:25.796Z,32.90
2018-06-04T18:05:34.928Z,33.00
2018-06-04T18:10:40.055Z,33.40
2018-06-04T18:15:45.669Z,33.70
2018-06-04T18:20:49.362Z,33.80
2018-06-04T18:25:55.508Z,34.20
2018-06-04T18:36:13.854Z,34.60
2018-06-04T18:41:23.687Z,34.50
2018-06-04T18:46:33.221Z,34.30
2018-06-04T19:02:13.084Z,34.60
2018-06-04T19:07:16.813Z,34.90
2018-06-04T19:12:20.593Z,35.20
2018-06-04T19:17:25.311Z,35.50
2018-06-04T19:22:29.104Z,35.90
2018-06-04T19:27:32.816Z,35.70
2018-06-04T19:32:36.573Z,35.90
2018-06-04T19:37:40.369Z,36.10
2018-06-04T19:42:44.056Z,36.50
2018-06-04T19:47:48.696Z,36.70
2018-06-04T19:52:53.292Z,37.00
2018-06-04T19:57:57.895Z,36.80
2018-06-04T20:03:01.578Z,37.10
2018-06-04T20:08:05.721Z,37.30
2018-06-04T20:13:10.445Z,37.60
2018-06-04T20:18:14.236Z,38.00
2018-06-04T20:23:17.925Z,38.20
2018-06-04T20:28:21.557Z,38.00
2018-06-04T20:33:25.277Z,38.20
2018-06-04T20:38:29.005Z,38.50
2018-06-04T20:43:32.767Z,38.70
2018-06-04T20:48:36.500Z,38.90
2018-06-04T20:53:40.350Z,39.20
2018-06-04T20:58:44.080Z,39.40
2018-06-04T21:03:47.705Z,39.70
2018-06-04T21:08:51.353Z,39.90
2018-06-04T21:13:54.992Z,39.60
2018-06-04T21:18:58.605Z,39.80
2018-06-04T21:24:02.196Z,39.90
2018-06-04T21:29:05.929Z,40.20
2018-06-04T21:34:09.621Z,41.30
2018-06-04T21:39:13.189Z,40.60
2018-06-04T21:44:16.819Z,40.70
2018-06-04T21:49:21.032Z,40.80
2018-06-04T21:59:27.694Z,41.30
2018-06-04T22:04:31.279Z,41.00
2018-06-04T22:09:34.834Z,40.90
2018-06-04T22:14:38.413Z,41.20
2018-06-04T22:24:45.060Z,41.50
2018-06-04T22:29:48.539Z,41.70
2018-06-04T22:34:52.014Z,41.90
2018-06-04T22:39:55.522Z,41.90
2018-06-04T22:44:59.168Z,42.30
2018-06-04T22:50:03.369Z,42.60
2018-06-04T22:55:06.938Z,42.70
2018-06-04T23:00:10.888Z,43.40
2018-06-04T23:10:17.538Z,43.10
2018-06-04T23:15:21.817Z,43.20
2018-06-04T23:20:25.243Z,43.50
2018-06-04T23:25:28.728Z,43.20
2018-06-04T23:30:32.214Z,43.30
2018-06-04T23:35:35.750Z,43.20
2018-06-04T23:40:39.230Z,43.20
2018-06-04T23:45:42.816Z,43.40
2018-06-04T23:50:46.268Z,43.80
